sensor_id;sensor_type;location;lat;lon;timestamp;P1;durP1;ratioP1;P2;durP2;ratioP2
69047;SDS011;56119;50.118;8.642;2023-04-03T00:01:30;4.78;;;2.17;;
69047;SDS011;56119;50.118;8.642;2023-04-03T00:03:56;5.13;;;2.35;;
69047;SDS011;56119;50.118;8.642;2023-04-03T00:06:22;4.15;;;2.35;;
69047;SDS011;56119;50.118;8.642;2023-04-03T00:08:48;4.10;;;2.00;;
69047;SDS011;56119;50.118;8.642;2023-04-03T00:11:14;3.72;;;2.00;;
69047;SDS011;56119;50.118;8.642;2023-04-03T00:13:40;4.13;;;1.98;;
69047;SDS011;56119;50.118;8.642;2023-04-03T00:16:07;5.70;;;2.08;;
69047;SDS011;56119;50.118;8.642;2023-04-03T00:18:34;5.63;;;2.17;;
69047;SDS011;56119;50.118;8.642;2023-04-03T00:21:00;2.90;;;1.83;;
69047;SDS011;56119;50.118;8.642;2023-04-03T00:23:26;4.63;;;2.20;;
69047;SDS011;56119;50.118;8.642;2023-04-03T00:25:52;4.15;;;2.00;;
69047;SDS011;56119;50.118;8.642;2023-04-03T00:28:18;3.03;;;2.15;;
69047;SDS011;56119;50.118;8.642;2023-04-03T00:30:44;2.95;;;1.98;;
69047;SDS011;56119;50.118;8.642;2023-04-03T00:33:13;3.45;;;1.80;;
69047;SDS011;56119;50.118;8.642;2023-04-03T00:35:39;5.85;;;2.05;;
69047;SDS011;56119;50.118;8.642;2023-04-03T00:38:06;5.60;;;1.98;;
69047;SDS011;56119;50.118;8.642;2023-04-03T00:40:36;3.97;;;1.90;;
69047;SDS011;56119;50.118;8.642;2023-04-03T00:43:02;4.38;;;2.33;;
69047;SDS011;56119;50.118;8.642;2023-04-03T00:45:33;2.10;;;1.70;;
69047;SDS011;56119;50.118;8.642;2023-04-03T00:48:00;3.40;;;1.50;;
69047;SDS011;56119;50.118;8.642;2023-04-03T00:50:27;4.32;;;2.25;;
69047;SDS011;56119;50.118;8.642;2023-04-03T00:52:54;4.40;;;2.05;;
69047;SDS011;56119;50.118;8.642;2023-04-03T00:55:21;3.88;;;1.80;;
69047;SDS011;56119;50.118;8.642;2023-04-03T00:57:47;6.22;;;2.00;;
69047;SDS011;56119;50.118;8.642;2023-04-03T01:00:14;5.05;;;2.08;;
69047;SDS011;56119;50.118;8.642;2023-04-03T01:02:42;6.88;;;2.22;;
69047;SDS011;56119;50.118;8.642;2023-04-03T01:05:08;4.75;;;2.10;;
69047;SDS011;56119;50.118;8.642;2023-04-03T01:07:34;4.63;;;2.15;;
69047;SDS011;56119;50.118;8.642;2023-04-03T01:10:03;4.30;;;1.90;;
69047;SDS011;56119;50.118;8.642;2023-04-03T01:12:31;3.67;;;1.85;;
69047;SDS011;56119;50.118;8.642;2023-04-03T01:14:58;5.80;;;2.25;;
69047;SDS011;56119;50.118;8.642;2023-04-03T01:17:29;3.80;;;1.63;;
69047;SDS011;56119;50.118;8.642;2023-04-03T01:20:00;4.88;;;1.95;;
69047;SDS011;56119;50.118;8.642;2023-04-03T01:22:33;4.57;;;1.92;;
69047;SDS011;56119;50.118;8.642;2023-04-03T01:25:03;5.40;;;2.00;;
69047;SDS011;56119;50.118;8.642;2023-04-03T01:27:29;3.53;;;1.60;;
69047;SDS011;56119;50.118;8.642;2023-04-03T01:29:55;5.47;;;2.22;;
69047;SDS011;56119;50.118;8.642;2023-04-03T01:32:21;3.50;;;1.83;;
69047;SDS011;56119;50.118;8.642;2023-04-03T01:34:47;5.85;;;2.10;;
69047;SDS011;56119;50.118;8.642;2023-04-03T01:37:13;5.70;;;2.38;;
69047;SDS011;56119;50.118;8.642;2023-04-03T01:39:39;4.40;;;2.00;;
69047;SDS011;56119;50.118;8.642;2023-04-03T01:42:05;4.20;;;2.30;;
69047;SDS011;56119;50.118;8.642;2023-04-03T01:44:31;6.20;;;1.90;;
69047;SDS011;56119;50.118;8.642;2023-04-03T01:46:57;3.30;;;1.48;;
69047;SDS011;56119;50.118;8.642;2023-04-03T01:49:23;6.78;;;1.90;;
69047;SDS011;56119;50.118;8.642;2023-04-03T01:51:49;2.58;;;1.60;;
69047;SDS011;56119;50.118;8.642;2023-04-03T01:54:15;4.47;;;2.15;;
69047;SDS011;56119;50.118;8.642;2023-04-03T01:56:41;2.92;;;1.67;;
69047;SDS011;56119;50.118;8.642;2023-04-03T01:59:07;4.00;;;1.80;;
69047;SDS011;56119;50.118;8.642;2023-04-03T02:01:33;3.83;;;1.83;;
69047;SDS011;56119;50.118;8.642;2023-04-03T02:03:59;3.95;;;2.20;;
69047;SDS011;56119;50.118;8.642;2023-04-03T02:06:25;4.97;;;1.90;;
69047;SDS011;56119;50.118;8.642;2023-04-03T02:08:51;4.43;;;1.60;;
69047;SDS011;56119;50.118;8.642;2023-04-03T02:11:17;4.07;;;1.63;;
69047;SDS011;56119;50.118;8.642;2023-04-03T02:13:43;3.47;;;1.80;;
69047;SDS011;56119;50.118;8.642;2023-04-03T02:16:09;4.40;;;2.00;;
69047;SDS011;56119;50.118;8.642;2023-04-03T02:18:36;6.07;;;2.15;;
69047;SDS011;56119;50.118;8.642;2023-04-03T02:21:02;4.28;;;1.65;;
69047;SDS011;56119;50.118;8.642;2023-04-03T02:23:28;6.35;;;2.13;;
69047;SDS011;56119;50.118;8.642;2023-04-03T02:26:02;4.80;;;2.00;;
69047;SDS011;56119;50.118;8.642;2023-04-03T02:28:28;5.35;;;2.03;;
69047;SDS011;56119;50.118;8.642;2023-04-03T02:30:54;4.05;;;1.83;;
69047;SDS011;56119;50.118;8.642;2023-04-03T02:33:20;3.63;;;2.05;;
69047;SDS011;56119;50.118;8.642;2023-04-03T02:35:46;3.72;;;1.70;;
69047;SDS011;56119;50.118;8.642;2023-04-03T02:38:18;6.53;;;2.08;;
69047;SDS011;56119;50.118;8.642;2023-04-03T02:40:44;6.32;;;1.80;;
69047;SDS011;56119;50.118;8.642;2023-04-03T02:43:10;4.45;;;1.70;;
69047;SDS011;56119;50.118;8.642;2023-04-03T02:45:36;5.35;;;1.52;;
69047;SDS011;56119;50.118;8.642;2023-04-03T02:48:02;4.65;;;1.60;;
69047;SDS011;56119;50.118;8.642;2023-04-03T02:50:28;7.00;;;1.88;;
69047;SDS011;56119;50.118;8.642;2023-04-03T02:52:54;7.65;;;2.15;;
69047;SDS011;56119;50.118;8.642;2023-04-03T02:55:20;3.28;;;1.95;;
69047;SDS011;56119;50.118;8.642;2023-04-03T02:57:46;6.18;;;1.90;;
69047;SDS011;56119;50.118;8.642;2023-04-03T03:00:12;3.08;;;1.58;;
69047;SDS011;56119;50.118;8.642;2023-04-03T03:02:39;8.02;;;2.63;;
69047;SDS011;56119;50.118;8.642;2023-04-03T03:05:05;3.33;;;1.77;;
69047;SDS011;56119;50.118;8.642;2023-04-03T03:07:31;3.97;;;1.90;;
69047;SDS011;56119;50.118;8.642;2023-04-03T03:09:57;4.82;;;2.22;;
69047;SDS011;56119;50.118;8.642;2023-04-03T03:12:23;4.88;;;1.80;;
69047;SDS011;56119;50.118;8.642;2023-04-03T03:14:49;5.70;;;1.75;;
69047;SDS011;56119;50.118;8.642;2023-04-03T03:17:15;5.75;;;1.63;;
69047;SDS011;56119;50.118;8.642;2023-04-03T03:19:41;3.63;;;1.75;;
69047;SDS011;56119;50.118;8.642;2023-04-03T03:22:07;5.80;;;1.80;;
69047;SDS011;56119;50.118;8.642;2023-04-03T03:24:34;5.13;;;1.70;;
69047;SDS011;56119;50.118;8.642;2023-04-03T03:27:00;5.60;;;1.42;;
69047;SDS011;56119;50.118;8.642;2023-04-03T03:29:26;6.35;;;1.73;;
69047;SDS011;56119;50.118;8.642;2023-04-03T03:31:52;3.53;;;1.60;;
69047;SDS011;56119;50.118;8.642;2023-04-03T03:34:18;6.45;;;1.65;;
69047;SDS011;56119;50.118;8.642;2023-04-03T03:36:44;3.22;;;1.40;;
69047;SDS011;56119;50.118;8.642;2023-04-03T03:39:10;3.97;;;1.65;;
69047;SDS011;56119;50.118;8.642;2023-04-03T03:41:36;4.00;;;1.40;;
69047;SDS011;56119;50.118;8.642;2023-04-03T03:44:02;7.18;;;1.70;;
69047;SDS011;56119;50.118;8.642;2023-04-03T03:46:28;5.50;;;1.42;;
69047;SDS011;56119;50.118;8.642;2023-04-03T03:48:54;4.63;;;1.40;;
69047;SDS011;56119;50.118;8.642;2023-04-03T03:51:20;4.78;;;1.60;;
69047;SDS011;56119;50.118;8.642;2023-04-03T03:53:46;4.72;;;1.55;;
69047;SDS011;56119;50.118;8.642;2023-04-03T03:56:12;4.25;;;1.48;;
69047;SDS011;56119;50.118;8.642;2023-04-03T03:58:37;5.90;;;1.85;;
69047;SDS011;56119;50.118;8.642;2023-04-03T04:01:04;5.28;;;1.45;;
69047;SDS011;56119;50.118;8.642;2023-04-03T04:03:31;6.88;;;1.58;;
69047;SDS011;56119;50.118;8.642;2023-04-03T04:05:57;4.53;;;1.70;;
69047;SDS011;56119;50.118;8.642;2023-04-03T04:08:23;4.47;;;1.50;;
69047;SDS011;56119;50.118;8.642;2023-04-03T04:10:49;4.13;;;1.10;;
69047;SDS011;56119;50.118;8.642;2023-04-03T04:13:16;3.33;;;1.17;;
69047;SDS011;56119;50.118;8.642;2023-04-03T04:15:42;3.30;;;1.23;;
69047;SDS011;56119;50.118;8.642;2023-04-03T04:18:08;4.13;;;1.25;;
69047;SDS011;56119;50.118;8.642;2023-04-03T04:20:35;5.63;;;1.48;;
69047;SDS011;56119;50.118;8.642;2023-04-03T04:23:01;2.38;;;1.30;;
69047;SDS011;56119;50.118;8.642;2023-04-03T04:25:27;2.95;;;1.30;;
69047;SDS011;56119;50.118;8.642;2023-04-03T04:27:53;5.97;;;1.40;;
69047;SDS011;56119;50.118;8.642;2023-04-03T04:30:19;8.07;;;1.67;;
69047;SDS011;56119;50.118;8.642;2023-04-03T04:32:44;7.20;;;1.40;;
69047;SDS011;56119;50.118;8.642;2023-04-03T04:35:10;4.30;;;1.60;;
69047;SDS011;56119;50.118;8.642;2023-04-03T04:37:37;4.55;;;1.77;;
69047;SDS011;56119;50.118;8.642;2023-04-03T04:40:03;3.75;;;1.33;;
69047;SDS011;56119;50.118;8.642;2023-04-03T04:42:29;4.15;;;1.60;;
69047;SDS011;56119;50.118;8.642;2023-04-03T04:44:55;6.53;;;2.30;;
69047;SDS011;56119;50.118;8.642;2023-04-03T04:47:21;4.78;;;1.67;;
69047;SDS011;56119;50.118;8.642;2023-04-03T04:49:47;5.95;;;1.80;;
69047;SDS011;56119;50.118;8.642;2023-04-03T04:52:13;5.18;;;1.70;;
69047;SDS011;56119;50.118;8.642;2023-04-03T04:54:39;4.60;;;1.65;;
69047;SDS011;56119;50.118;8.642;2023-04-03T04:57:05;5.47;;;1.40;;
69047;SDS011;56119;50.118;8.642;2023-04-03T04:59:31;4.07;;;1.45;;
69047;SDS011;56119;50.118;8.642;2023-04-03T05:01:57;5.07;;;2.10;;
69047;SDS011;56119;50.118;8.642;2023-04-03T05:04:23;6.18;;;1.52;;
69047;SDS011;56119;50.118;8.642;2023-04-03T05:06:49;3.55;;;1.63;;
69047;SDS011;56119;50.118;8.642;2023-04-03T05:09:15;6.90;;;1.88;;
69047;SDS011;56119;50.118;8.642;2023-04-03T05:11:41;6.63;;;1.75;;
69047;SDS011;56119;50.118;8.642;2023-04-03T05:14:08;5.90;;;1.80;;
69047;SDS011;56119;50.118;8.642;2023-04-03T05:16:34;6.25;;;2.42;;
69047;SDS011;56119;50.118;8.642;2023-04-03T05:19:00;8.77;;;2.20;;
69047;SDS011;56119;50.118;8.642;2023-04-03T05:21:26;5.63;;;2.10;;
69047;SDS011;56119;50.118;8.642;2023-04-03T05:23:54;4.97;;;2.15;;
69047;SDS011;56119;50.118;8.642;2023-04-03T05:26:20;6.35;;;1.90;;
69047;SDS011;56119;50.118;8.642;2023-04-03T05:28:46;5.57;;;1.85;;
69047;SDS011;56119;50.118;8.642;2023-04-03T05:31:12;6.03;;;2.08;;
69047;SDS011;56119;50.118;8.642;2023-04-03T05:33:38;4.80;;;1.95;;
69047;SDS011;56119;50.118;8.642;2023-04-03T05:36:04;4.30;;;1.70;;
69047;SDS011;56119;50.118;8.642;2023-04-03T05:38:31;8.43;;;2.03;;
69047;SDS011;56119;50.118;8.642;2023-04-03T05:40:57;5.85;;;1.88;;
69047;SDS011;56119;50.118;8.642;2023-04-03T05:43:23;5.90;;;2.10;;
69047;SDS011;56119;50.118;8.642;2023-04-03T05:45:49;4.93;;;1.70;;
69047;SDS011;56119;50.118;8.642;2023-04-03T05:48:16;7.85;;;2.10;;
69047;SDS011;56119;50.118;8.642;2023-04-03T05:50:42;6.00;;;2.45;;
69047;SDS011;56119;50.118;8.642;2023-04-03T05:53:14;5.90;;;2.28;;
69047;SDS011;56119;50.118;8.642;2023-04-03T05:55:41;4.50;;;1.77;;
69047;SDS011;56119;50.118;8.642;2023-04-03T05:58:07;4.72;;;1.80;;
69047;SDS011;56119;50.118;8.642;2023-04-03T06:00:33;5.00;;;2.00;;
69047;SDS011;56119;50.118;8.642;2023-04-03T06:02:59;5.80;;;2.10;;
69047;SDS011;56119;50.118;8.642;2023-04-03T06:05:25;7.05;;;1.92;;
69047;SDS011;56119;50.118;8.642;2023-04-03T06:07:51;5.18;;;1.90;;
69047;SDS011;56119;50.118;8.642;2023-04-03T06:10:17;6.50;;;2.10;;
69047;SDS011;56119;50.118;8.642;2023-04-03T06:12:43;5.18;;;1.70;;
69047;SDS011;56119;50.118;8.642;2023-04-03T06:15:09;7.85;;;2.10;;
69047;SDS011;56119;50.118;8.642;2023-04-03T06:17:36;7.63;;;2.25;;
69047;SDS011;56119;50.118;8.642;2023-04-03T06:20:03;6.90;;;2.03;;
69047;SDS011;56119;50.118;8.642;2023-04-03T06:22:29;5.82;;;2.03;;
69047;SDS011;56119;50.118;8.642;2023-04-03T06:24:56;5.80;;;2.10;;
69047;SDS011;56119;50.118;8.642;2023-04-03T06:27:22;7.97;;;2.20;;
69047;SDS011;56119;50.118;8.642;2023-04-03T06:29:48;6.22;;;1.92;;
69047;SDS011;56119;50.118;8.642;2023-04-03T06:32:15;7.50;;;2.22;;
69047;SDS011;56119;50.118;8.642;2023-04-03T06:34:41;9.18;;;2.42;;
69047;SDS011;56119;50.118;8.642;2023-04-03T06:37:14;9.32;;;2.10;;
69047;SDS011;56119;50.118;8.642;2023-04-03T06:39:40;5.88;;;2.05;;
69047;SDS011;56119;50.118;8.642;2023-04-03T06:42:07;5.20;;;2.03;;
69047;SDS011;56119;50.118;8.642;2023-04-03T06:44:33;7.10;;;2.57;;
69047;SDS011;56119;50.118;8.642;2023-04-03T06:46:59;8.60;;;3.35;;
69047;SDS011;56119;50.118;8.642;2023-04-03T06:49:25;6.80;;;2.67;;
69047;SDS011;56119;50.118;8.642;2023-04-03T06:54:24;6.32;;;2.30;;
69047;SDS011;56119;50.118;8.642;2023-04-03T06:56:50;6.18;;;2.47;;
69047;SDS011;56119;50.118;8.642;2023-04-03T06:59:16;9.68;;;2.70;;
69047;SDS011;56119;50.118;8.642;2023-04-03T07:01:42;7.15;;;2.83;;
69047;SDS011;56119;50.118;8.642;2023-04-03T07:04:08;8.23;;;2.13;;
69047;SDS011;56119;50.118;8.642;2023-04-03T07:06:34;7.37;;;2.47;;
69047;SDS011;56119;50.118;8.642;2023-04-03T07:09:01;7.60;;;2.37;;
69047;SDS011;56119;50.118;8.642;2023-04-03T07:11:27;7.30;;;2.30;;
69047;SDS011;56119;50.118;8.642;2023-04-03T07:13:53;7.63;;;2.90;;
69047;SDS011;56119;50.118;8.642;2023-04-03T07:16:19;8.32;;;2.63;;
69047;SDS011;56119;50.118;8.642;2023-04-03T07:18:46;5.27;;;2.77;;
69047;SDS011;56119;50.118;8.642;2023-04-03T07:21:12;7.18;;;2.80;;
69047;SDS011;56119;50.118;8.642;2023-04-03T07:23:38;11.13;;;2.72;;
69047;SDS011;56119;50.118;8.642;2023-04-03T07:26:04;5.63;;;2.72;;
69047;SDS011;56119;50.118;8.642;2023-04-03T07:28:31;7.28;;;2.85;;
69047;SDS011;56119;50.118;8.642;2023-04-03T07:31:04;5.00;;;2.67;;
69047;SDS011;56119;50.118;8.642;2023-04-03T07:33:31;7.97;;;2.40;;
69047;SDS011;56119;50.118;8.642;2023-04-03T07:35:58;7.50;;;3.10;;
69047;SDS011;56119;50.118;8.642;2023-04-03T07:38:25;10.52;;;3.22;;
69047;SDS011;56119;50.118;8.642;2023-04-03T07:40:51;5.40;;;2.65;;
69047;SDS011;56119;50.118;8.642;2023-04-03T07:43:17;6.30;;;2.45;;
69047;SDS011;56119;50.118;8.642;2023-04-03T07:45:43;6.78;;;2.75;;
69047;SDS011;56119;50.118;8.642;2023-04-03T07:48:10;10.65;;;3.00;;
69047;SDS011;56119;50.118;8.642;2023-04-03T07:50:36;7.25;;;2.70;;
69047;SDS011;56119;50.118;8.642;2023-04-03T07:53:02;8.30;;;2.85;;
69047;SDS011;56119;50.118;8.642;2023-04-03T07:55:29;4.20;;;2.65;;
69047;SDS011;56119;50.118;8.642;2023-04-03T07:57:55;4.88;;;2.38;;
69047;SDS011;56119;50.118;8.642;2023-04-03T08:00:21;6.93;;;2.50;;
69047;SDS011;56119;50.118;8.642;2023-04-03T08:02:47;5.05;;;2.35;;
69047;SDS011;56119;50.118;8.642;2023-04-03T08:05:19;5.65;;;2.40;;
69047;SDS011;56119;50.118;8.642;2023-04-03T08:07:45;6.68;;;2.25;;
69047;SDS011;56119;50.118;8.642;2023-04-03T08:10:11;3.65;;;2.40;;
69047;SDS011;56119;50.118;8.642;2023-04-03T08:12:37;6.05;;;2.22;;
69047;SDS011;56119;50.118;8.642;2023-04-03T08:15:03;7.45;;;2.10;;
69047;SDS011;56119;50.118;8.642;2023-04-03T08:17:30;11.57;;;3.63;;
69047;SDS011;56119;50.118;8.642;2023-04-03T08:19:56;6.43;;;2.20;;
69047;SDS011;56119;50.118;8.642;2023-04-03T08:22:22;8.45;;;2.38;;
69047;SDS011;56119;50.118;8.642;2023-04-03T08:24:48;5.82;;;2.38;;
69047;SDS011;56119;50.118;8.642;2023-04-03T08:27:14;7.25;;;2.22;;
69047;SDS011;56119;50.118;8.642;2023-04-03T08:29:40;8.13;;;2.45;;
69047;SDS011;56119;50.118;8.642;2023-04-03T08:32:06;5.90;;;2.40;;
69047;SDS011;56119;50.118;8.642;2023-04-03T08:34:32;11.93;;;2.70;;
69047;SDS011;56119;50.118;8.642;2023-04-03T08:37:00;3.95;;;1.77;;
69047;SDS011;56119;50.118;8.642;2023-04-03T08:39:26;6.30;;;2.35;;
69047;SDS011;56119;50.118;8.642;2023-04-03T08:41:52;5.90;;;1.85;;
69047;SDS011;56119;50.118;8.642;2023-04-03T08:44:25;4.65;;;2.05;;
69047;SDS011;56119;50.118;8.642;2023-04-03T08:51:56;6.70;;;2.13;;
69047;SDS011;56119;50.118;8.642;2023-04-03T08:54:25;8.68;;;1.60;;
69047;SDS011;56119;50.118;8.642;2023-04-03T08:56:53;5.70;;;2.05;;
69047;SDS011;56119;50.118;8.642;2023-04-03T08:59:24;8.23;;;2.10;;
69047;SDS011;56119;50.118;8.642;2023-04-03T09:01:51;4.93;;;1.75;;
69047;SDS011;56119;50.118;8.642;2023-04-03T09:04:17;3.38;;;1.80;;
69047;SDS011;56119;50.118;8.642;2023-04-03T09:06:44;5.18;;;1.85;;
69047;SDS011;56119;50.118;8.642;2023-04-03T09:09:15;4.28;;;1.60;;
69047;SDS011;56119;50.118;8.642;2023-04-03T09:17:03;5.82;;;1.60;;
69047;SDS011;56119;50.118;8.642;2023-04-03T09:24:28;3.45;;;1.88;;
69047;SDS011;56119;50.118;8.642;2023-04-03T09:27:01;4.47;;;2.25;;
69047;SDS011;56119;50.118;8.642;2023-04-03T09:29:29;3.90;;;2.30;;
69047;SDS011;56119;50.118;8.642;2023-04-03T09:31:56;4.47;;;2.47;;
69047;SDS011;56119;50.118;8.642;2023-04-03T09:34:27;5.35;;;1.83;;
69047;SDS011;56119;50.118;8.642;2023-04-03T09:36:54;5.28;;;2.00;;
69047;SDS011;56119;50.118;8.642;2023-04-03T09:39:24;7.45;;;2.33;;
69047;SDS011;56119;50.118;8.642;2023-04-03T09:44:28;4.70;;;2.25;;
69047;SDS011;56119;50.118;8.642;2023-04-03T09:46:55;3.83;;;2.00;;
69047;SDS011;56119;50.118;8.642;2023-04-03T09:49:21;6.45;;;2.00;;
69047;SDS011;56119;50.118;8.642;2023-04-03T09:51:47;4.32;;;2.08;;
69047;SDS011;56119;50.118;8.642;2023-04-03T09:54:30;4.60;;;2.00;;
69047;SDS011;56119;50.118;8.642;2023-04-03T09:56:58;5.57;;;2.50;;
69047;SDS011;56119;50.118;8.642;2023-04-03T09:59:26;5.88;;;2.42;;
69047;SDS011;56119;50.118;8.642;2023-04-03T10:01:57;3.40;;;2.20;;
69047;SDS011;56119;50.118;8.642;2023-04-03T10:04:24;4.38;;;2.00;;
69047;SDS011;56119;50.118;8.642;2023-04-03T10:06:51;6.13;;;2.50;;
69047;SDS011;56119;50.118;8.642;2023-04-03T10:14:30;6.07;;;2.50;;
69047;SDS011;56119;50.118;8.642;2023-04-03T10:22:07;4.97;;;2.33;;
69047;SDS011;56119;50.118;8.642;2023-04-03T10:24:57;6.22;;;2.50;;
69047;SDS011;56119;50.118;8.642;2023-04-03T10:30:13;8.30;;;3.70;;
69047;SDS011;56119;50.118;8.642;2023-04-03T10:32:58;3.65;;;2.08;;
69047;SDS011;56119;50.118;8.642;2023-04-03T10:35:34;6.03;;;2.13;;
69047;SDS011;56119;50.118;8.642;2023-04-03T10:43:09;4.47;;;2.70;;
69047;SDS011;56119;50.118;8.642;2023-04-03T10:51:39;4.75;;;2.22;;
69047;SDS011;56119;50.118;8.642;2023-04-03T10:56:40;5.55;;;2.55;;
69047;SDS011;56119;50.118;8.642;2023-04-03T11:01:53;8.00;;;2.70;;
69047;SDS011;56119;50.118;8.642;2023-04-03T11:04:21;5.65;;;2.80;;
69047;SDS011;56119;50.118;8.642;2023-04-03T11:06:50;5.70;;;2.83;;
69047;SDS011;56119;50.118;8.642;2023-04-03T11:09:19;4.05;;;2.72;;
69047;SDS011;56119;50.118;8.642;2023-04-03T11:11:47;7.45;;;2.42;;
69047;SDS011;56119;50.118;8.642;2023-04-03T11:14:26;5.22;;;2.30;;
69047;SDS011;56119;50.118;8.642;2023-04-03T11:21:56;7.82;;;2.92;;
69047;SDS011;56119;50.118;8.642;2023-04-03T11:24:24;6.15;;;2.50;;
69047;SDS011;56119;50.118;8.642;2023-04-03T11:26:51;4.97;;;2.35;;
69047;SDS011;56119;50.118;8.642;2023-04-03T11:29:19;3.67;;;2.20;;
69047;SDS011;56119;50.118;8.642;2023-04-03T11:31:59;4.65;;;2.53;;
69047;SDS011;56119;50.118;8.642;2023-04-03T11:36:59;3.47;;;1.80;;
69047;SDS011;56119;50.118;8.642;2023-04-03T11:39:33;3.40;;;2.00;;
69047;SDS011;56119;50.118;8.642;2023-04-03T11:42:15;3.63;;;2.15;;
69047;SDS011;56119;50.118;8.642;2023-04-03T11:44:42;3.78;;;2.28;;
69047;SDS011;56119;50.118;8.642;2023-04-03T11:47:09;3.38;;;1.95;;
69047;SDS011;56119;50.118;8.642;2023-04-03T11:49:53;6.45;;;2.35;;
69047;SDS011;56119;50.118;8.642;2023-04-03T11:55:02;6.90;;;2.35;;
69047;SDS011;56119;50.118;8.642;2023-04-03T12:02:55;4.07;;;2.28;;
69047;SDS011;56119;50.118;8.642;2023-04-03T12:05:28;2.95;;;1.92;;
69047;SDS011;56119;50.118;8.642;2023-04-03T12:10:40;3.88;;;2.40;;
69047;SDS011;56119;50.118;8.642;2023-04-03T12:13:12;8.40;;;2.25;;
69047;SDS011;56119;50.118;8.642;2023-04-03T12:20:56;3.70;;;2.33;;
69047;SDS011;56119;50.118;8.642;2023-04-03T12:25:52;3.60;;;2.30;;
69047;SDS011;56119;50.118;8.642;2023-04-03T12:28:25;5.63;;;2.95;;
69047;SDS011;56119;50.118;8.642;2023-04-03T12:30:52;5.13;;;2.40;;
69047;SDS011;56119;50.118;8.642;2023-04-03T12:36:12;4.43;;;2.10;;
69047;SDS011;56119;50.118;8.642;2023-04-03T12:43:59;4.72;;;2.80;;
69047;SDS011;56119;50.118;8.642;2023-04-03T12:46:38;3.53;;;2.22;;
69047;SDS011;56119;50.118;8.642;2023-04-03T12:49:12;2.90;;;1.90;;
69047;SDS011;56119;50.118;8.642;2023-04-03T12:51:41;3.63;;;2.28;;
69047;SDS011;56119;50.118;8.642;2023-04-03T12:54:19;4.78;;;2.80;;
69047;SDS011;56119;50.118;8.642;2023-04-03T12:56:48;7.38;;;2.25;;
69047;SDS011;56119;50.118;8.642;2023-04-03T13:01:41;3.92;;;2.08;;
69047;SDS011;56119;50.118;8.642;2023-04-03T13:04:07;4.70;;;2.35;;
69047;SDS011;56119;50.118;8.642;2023-04-03T13:06:40;3.78;;;2.35;;
69047;SDS011;56119;50.118;8.642;2023-04-03T13:09:14;4.45;;;2.15;;
69047;SDS011;56119;50.118;8.642;2023-04-03T13:11:43;3.50;;;2.00;;
69047;SDS011;56119;50.118;8.642;2023-04-03T13:14:23;4.38;;;1.80;;
69047;SDS011;56119;50.118;8.642;2023-04-03T13:16:53;3.83;;;2.00;;
69047;SDS011;56119;50.118;8.642;2023-04-03T13:19:22;3.92;;;2.00;;
69047;SDS011;56119;50.118;8.642;2023-04-03T13:21:48;4.45;;;1.80;;
69047;SDS011;56119;50.118;8.642;2023-04-03T13:24:16;3.30;;;2.25;;
69047;SDS011;56119;50.118;8.642;2023-04-03T13:26:42;4.38;;;1.95;;
69047;SDS011;56119;50.118;8.642;2023-04-03T13:29:18;5.13;;;2.65;;
69047;SDS011;56119;50.118;8.642;2023-04-03T13:31:45;4.82;;;2.50;;
69047;SDS011;56119;50.118;8.642;2023-04-03T13:34:12;5.30;;;2.20;;
69047;SDS011;56119;50.118;8.642;2023-04-03T13:36:40;3.00;;;2.30;;
69047;SDS011;56119;50.118;8.642;2023-04-03T13:41:51;4.78;;;2.08;;
69047;SDS011;56119;50.118;8.642;2023-04-03T13:46:50;5.90;;;3.17;;
69047;SDS011;56119;50.118;8.642;2023-04-03T13:51:51;4.10;;;2.65;;
69047;SDS011;56119;50.118;8.642;2023-04-03T13:54:20;12.30;;;2.90;;
69047;SDS011;56119;50.118;8.642;2023-04-03T13:56:52;10.35;;;3.08;;
69047;SDS011;56119;50.118;8.642;2023-04-03T13:59:23;5.88;;;3.08;;
69047;SDS011;56119;50.118;8.642;2023-04-03T14:04:26;8.13;;;3.10;;
69047;SDS011;56119;50.118;8.642;2023-04-03T14:06:53;4.75;;;2.60;;
69047;SDS011;56119;50.118;8.642;2023-04-03T14:09:20;5.32;;;2.80;;
69047;SDS011;56119;50.118;8.642;2023-04-03T14:11:52;6.22;;;2.90;;
69047;SDS011;56119;50.118;8.642;2023-04-03T14:14:30;5.22;;;2.05;;
69047;SDS011;56119;50.118;8.642;2023-04-03T14:16:57;5.18;;;1.85;;
69047;SDS011;56119;50.118;8.642;2023-04-03T14:19:28;3.75;;;1.88;;
69047;SDS011;56119;50.118;8.642;2023-04-03T14:21:55;3.83;;;1.90;;
69047;SDS011;56119;50.118;8.642;2023-04-03T14:24:21;3.42;;;1.80;;
69047;SDS011;56119;50.118;8.642;2023-04-03T14:26:48;5.90;;;2.45;;
69047;SDS011;56119;50.118;8.642;2023-04-03T14:29:15;3.85;;;2.20;;
69047;SDS011;56119;50.118;8.642;2023-04-03T14:31:42;4.28;;;2.20;;
69047;SDS011;56119;50.118;8.642;2023-04-03T14:34:09;5.60;;;2.17;;
69047;SDS011;56119;50.118;8.642;2023-04-03T14:36:35;5.53;;;2.33;;
69047;SDS011;56119;50.118;8.642;2023-04-03T14:39:03;4.13;;;1.70;;
69047;SDS011;56119;50.118;8.642;2023-04-03T14:41:29;2.28;;;1.60;;
69047;SDS011;56119;50.118;8.642;2023-04-03T14:43:56;3.25;;;1.55;;
69047;SDS011;56119;50.118;8.642;2023-04-03T14:48:48;3.70;;;1.40;;
69047;SDS011;56119;50.118;8.642;2023-04-03T14:51:14;4.00;;;1.60;;
69047;SDS011;56119;50.118;8.642;2023-04-03T14:53:41;4.18;;;1.50;;
69047;SDS011;56119;50.118;8.642;2023-04-03T14:56:11;2.80;;;1.40;;
69047;SDS011;56119;50.118;8.642;2023-04-03T14:58:37;6.88;;;1.40;;
69047;SDS011;56119;50.118;8.642;2023-04-03T15:01:03;2.50;;;1.45;;
69047;SDS011;56119;50.118;8.642;2023-04-03T15:03:29;2.72;;;1.25;;
69047;SDS011;56119;50.118;8.642;2023-04-03T15:05:55;3.03;;;1.52;;
69047;SDS011;56119;50.118;8.642;2023-04-03T15:08:23;4.95;;;1.10;;
69047;SDS011;56119;50.118;8.642;2023-04-03T15:10:50;2.80;;;1.10;;
69047;SDS011;56119;50.118;8.642;2023-04-03T15:13:18;3.35;;;1.30;;
69047;SDS011;56119;50.118;8.642;2023-04-03T15:15:44;5.03;;;1.42;;
69047;SDS011;56119;50.118;8.642;2023-04-03T15:18:11;3.50;;;1.38;;
69047;SDS011;56119;50.118;8.642;2023-04-03T15:20:39;2.50;;;1.35;;
69047;SDS011;56119;50.118;8.642;2023-04-03T15:23:05;3.83;;;1.17;;
69047;SDS011;56119;50.118;8.642;2023-04-03T15:25:31;5.15;;;1.42;;
69047;SDS011;56119;50.118;8.642;2023-04-03T15:27:58;6.00;;;1.52;;
69047;SDS011;56119;50.118;8.642;2023-04-03T15:30:24;3.50;;;1.00;;
69047;SDS011;56119;50.118;8.642;2023-04-03T15:32:50;3.20;;;1.33;;
69047;SDS011;56119;50.118;8.642;2023-04-03T15:35:19;3.00;;;1.10;;
69047;SDS011;56119;50.118;8.642;2023-04-03T15:37:45;3.85;;;1.25;;
69047;SDS011;56119;50.118;8.642;2023-04-03T15:40:15;2.88;;;0.95;;
69047;SDS011;56119;50.118;8.642;2023-04-03T15:42:41;2.90;;;1.38;;
69047;SDS011;56119;50.118;8.642;2023-04-03T15:45:08;2.67;;;1.08;;
69047;SDS011;56119;50.118;8.642;2023-04-03T15:47:34;2.80;;;1.13;;
69047;SDS011;56119;50.118;8.642;2023-04-03T15:50:00;2.80;;;1.00;;
69047;SDS011;56119;50.118;8.642;2023-04-03T15:52:26;3.08;;;1.38;;
69047;SDS011;56119;50.118;8.642;2023-04-03T15:54:52;3.35;;;1.05;;
69047;SDS011;56119;50.118;8.642;2023-04-03T15:57:18;2.15;;;1.00;;
69047;SDS011;56119;50.118;8.642;2023-04-03T15:59:44;4.82;;;1.60;;
69047;SDS011;56119;50.118;8.642;2023-04-03T16:02:10;2.80;;;1.25;;
69047;SDS011;56119;50.118;8.642;2023-04-03T16:04:38;4.65;;;1.38;;
69047;SDS011;56119;50.118;8.642;2023-04-03T16:07:04;4.10;;;1.15;;
69047;SDS011;56119;50.118;8.642;2023-04-03T16:09:31;3.10;;;1.60;;
69047;SDS011;56119;50.118;8.642;2023-04-03T16:11:58;3.92;;;2.47;;
69047;SDS011;56119;50.118;8.642;2023-04-03T16:14:23;2.35;;;1.55;;
69047;SDS011;56119;50.118;8.642;2023-04-03T16:16:49;2.97;;;1.33;;
69047;SDS011;56119;50.118;8.642;2023-04-03T16:19:15;2.92;;;1.08;;
69047;SDS011;56119;50.118;8.642;2023-04-03T16:21:41;2.83;;;1.45;;
69047;SDS011;56119;50.118;8.642;2023-04-03T16:24:08;3.13;;;1.10;;
69047;SDS011;56119;50.118;8.642;2023-04-03T16:26:34;3.92;;;1.50;;
69047;SDS011;56119;50.118;8.642;2023-04-03T16:29:00;3.90;;;1.25;;